sensor_id;sensor_type;location;lat;lon;timestamp;P1;durP1;ratioP1;P2;durP2;ratioP2
5379;SDS011;2713;42.680;23.310;2022-10-16T00:00:30;13.13;;;10.73;;
5379;SDS011;2713;42.680;23.310;2022-10-16T00:02:57;12.37;;;10.27;;
5379;SDS011;2713;42.680;23.310;2022-10-16T00:05:23;13.90;;;10.90;;
5379;SDS011;2713;42.680;23.310;2022-10-16T00:07:52;12.73;;;10.50;;
5379;SDS011;2713;42.680;23.310;2022-10-16T00:10:18;13.40;;;10.77;;
5379;SDS011;2713;42.680;23.310;2022-10-16T00:12:45;13.70;;;10.70;;
5379;SDS011;2713;42.680;23.310;2022-10-16T00:15:12;13.10;;;10.60;;
5379;SDS011;2713;42.680;23.310;2022-10-16T00:17:39;11.40;;;10.20;;
5379;SDS011;2713;42.680;23.310;2022-10-16T00:20:06;14.63;;;11.10;;
5379;SDS011;2713;42.680;23.310;2022-10-16T00:22:34;14.20;;;10.93;;
5379;SDS011;2713;42.680;23.310;2022-10-16T00:25:02;13.07;;;10.03;;
5379;SDS011;2713;42.680;23.310;2022-10-16T00:27:29;13.43;;;10.20;;
5379;SDS011;2713;42.680;23.310;2022-10-16T00:29:56;12.77;;;10.27;;
5379;SDS011;2713;42.680;23.310;2022-10-16T00:32:23;13.50;;;10.83;;
5379;SDS011;2713;42.680;23.310;2022-10-16T00:34:50;13.33;;;10.07;;
5379;SDS011;2713;42.680;23.310;2022-10-16T00:37:18;11.70;;;9.77;;
5379;SDS011;2713;42.680;23.310;2022-10-16T00:39:45;12.47;;;11.17;;
5379;SDS011;2713;42.680;23.310;2022-10-16T00:42:15;13.37;;;11.10;;
5379;SDS011;2713;42.680;23.310;2022-10-16T00:44:45;16.10;;;10.90;;
5379;SDS011;2713;42.680;23.310;2022-10-16T00:47:17;13.70;;;10.50;;
5379;SDS011;2713;42.680;23.310;2022-10-16T00:49:47;14.07;;;10.83;;
5379;SDS011;2713;42.680;23.310;2022-10-16T00:52:16;12.57;;;10.47;;
5379;SDS011;2713;42.680;23.310;2022-10-16T00:54:44;14.23;;;9.90;;
5379;SDS011;2713;42.680;23.310;2022-10-16T00:57:14;14.40;;;10.47;;
5379;SDS011;2713;42.680;23.310;2022-10-16T00:59:41;11.80;;;10.30;;
5379;SDS011;2713;42.680;23.310;2022-10-16T01:02:11;13.70;;;10.83;;
5379;SDS011;2713;42.680;23.310;2022-10-16T01:04:40;12.53;;;9.90;;
5379;SDS011;2713;42.680;23.310;2022-10-16T01:07:11;11.20;;;9.37;;
5379;SDS011;2713;42.680;23.310;2022-10-16T01:09:47;15.40;;;10.20;;
5379;SDS011;2713;42.680;23.310;2022-10-16T01:12:26;11.57;;;9.87;;
5379;SDS011;2713;42.680;23.310;2022-10-16T01:15:02;13.73;;;10.17;;
5379;SDS011;2713;42.680;23.310;2022-10-16T01:17:37;11.60;;;10.13;;
5379;SDS011;2713;42.680;23.310;2022-10-16T01:20:10;14.73;;;9.87;;
5379;SDS011;2713;42.680;23.310;2022-10-16T01:22:48;12.93;;;10.50;;
5379;SDS011;2713;42.680;23.310;2022-10-16T01:25:25;11.20;;;9.93;;
5379;SDS011;2713;42.680;23.310;2022-10-16T01:28:01;11.53;;;9.60;;
5379;SDS011;2713;42.680;23.310;2022-10-16T01:30:31;11.57;;;9.80;;
5379;SDS011;2713;42.680;23.310;2022-10-16T01:33:00;14.67;;;10.50;;
5379;SDS011;2713;42.680;23.310;2022-10-16T01:35:34;12.40;;;9.20;;
5379;SDS011;2713;42.680;23.310;2022-10-16T01:38:04;12.47;;;10.50;;
5379;SDS011;2713;42.680;23.310;2022-10-16T01:40:36;14.77;;;9.97;;
5379;SDS011;2713;42.680;23.310;2022-10-16T01:43:11;12.67;;;9.80;;
5379;SDS011;2713;42.680;23.310;2022-10-16T01:45:42;11.80;;;9.83;;
5379;SDS011;2713;42.680;23.310;2022-10-16T01:48:12;11.40;;;9.43;;
5379;SDS011;2713;42.680;23.310;2022-10-16T01:50:43;13.00;;;10.33;;
5379;SDS011;2713;42.680;23.310;2022-10-16T01:53:14;14.40;;;10.57;;
5379;SDS011;2713;42.680;23.310;2022-10-16T01:55:43;13.40;;;10.50;;
5379;SDS011;2713;42.680;23.310;2022-10-16T01:58:15;13.83;;;11.00;;
5379;SDS011;2713;42.680;23.310;2022-10-16T02:00:43;15.40;;;10.90;;
5379;SDS011;2713;42.680;23.310;2022-10-16T02:03:13;15.60;;;11.00;;
5379;SDS011;2713;42.680;23.310;2022-10-16T02:05:44;14.70;;;10.20;;
5379;SDS011;2713;42.680;23.310;2022-10-16T02:08:13;13.43;;;10.37;;
5379;SDS011;2713;42.680;23.310;2022-10-16T02:10:40;14.83;;;11.23;;
5379;SDS011;2713;42.680;23.310;2022-10-16T02:13:08;14.03;;;11.07;;
5379;SDS011;2713;42.680;23.310;2022-10-16T02:15:39;14.00;;;10.00;;
5379;SDS011;2713;42.680;23.310;2022-10-16T02:18:06;11.33;;;9.40;;
5379;SDS011;2713;42.680;23.310;2022-10-16T02:20:37;17.03;;;10.80;;
5379;SDS011;2713;42.680;23.310;2022-10-16T02:23:12;11.67;;;9.40;;
5379;SDS011;2713;42.680;23.310;2022-10-16T02:25:42;10.60;;;9.20;;
5379;SDS011;2713;42.680;23.310;2022-10-16T02:28:13;10.53;;;8.90;;
5379;SDS011;2713;42.680;23.310;2022-10-16T02:30:46;11.53;;;9.80;;
5379;SDS011;2713;42.680;23.310;2022-10-16T02:33:17;11.00;;;9.37;;
5379;SDS011;2713;42.680;23.310;2022-10-16T02:35:48;11.17;;;9.30;;
5379;SDS011;2713;42.680;23.310;2022-10-16T02:38:17;11.53;;;8.80;;
5379;SDS011;2713;42.680;23.310;2022-10-16T02:40:45;11.60;;;8.90;;
5379;SDS011;2713;42.680;23.310;2022-10-16T02:43:12;11.17;;;9.50;;
5379;SDS011;2713;42.680;23.310;2022-10-16T02:45:39;12.00;;;9.20;;
5379;SDS011;2713;42.680;23.310;2022-10-16T02:48:08;17.17;;;9.80;;
5379;SDS011;2713;42.680;23.310;2022-10-16T02:50:35;13.40;;;9.50;;
5379;SDS011;2713;42.680;23.310;2022-10-16T02:53:02;15.50;;;9.97;;
5379;SDS011;2713;42.680;23.310;2022-10-16T02:55:29;11.83;;;9.80;;
5379;SDS011;2713;42.680;23.310;2022-10-16T02:57:55;12.13;;;9.10;;
5379;SDS011;2713;42.680;23.310;2022-10-16T03:00:22;12.07;;;9.13;;
5379;SDS011;2713;42.680;23.310;2022-10-16T03:02:49;12.07;;;9.00;;
5379;SDS011;2713;42.680;23.310;2022-10-16T03:05:18;10.83;;;8.90;;
5379;SDS011;2713;42.680;23.310;2022-10-16T03:07:44;11.10;;;9.10;;
5379;SDS011;2713;42.680;23.310;2022-10-16T03:10:11;11.13;;;8.20;;
5379;SDS011;2713;42.680;23.310;2022-10-16T03:12:38;13.27;;;9.20;;
5379;SDS011;2713;42.680;23.310;2022-10-16T03:15:05;14.10;;;9.60;;
5379;SDS011;2713;42.680;23.310;2022-10-16T03:17:33;10.47;;;8.90;;
5379;SDS011;2713;42.680;23.310;2022-10-16T03:20:00;11.73;;;8.73;;
5379;SDS011;2713;42.680;23.310;2022-10-16T03:22:28;12.47;;;10.23;;
5379;SDS011;2713;42.680;23.310;2022-10-16T03:24:55;11.80;;;10.00;;
5379;SDS011;2713;42.680;23.310;2022-10-16T03:27:22;12.43;;;9.80;;
5379;SDS011;2713;42.680;23.310;2022-10-16T03:29:49;13.57;;;10.90;;
5379;SDS011;2713;42.680;23.310;2022-10-16T03:32:15;14.63;;;10.10;;
5379;SDS011;2713;42.680;23.310;2022-10-16T03:34:43;12.33;;;9.97;;
5379;SDS011;2713;42.680;23.310;2022-10-16T03:37:10;13.20;;;9.57;;
5379;SDS011;2713;42.680;23.310;2022-10-16T03:39:38;12.03;;;10.07;;
5379;SDS011;2713;42.680;23.310;2022-10-16T03:42:05;12.50;;;10.33;;
5379;SDS011;2713;42.680;23.310;2022-10-16T03:44:32;13.07;;;10.20;;
5379;SDS011;2713;42.680;23.310;2022-10-16T03:46:58;13.80;;;10.37;;
5379;SDS011;2713;42.680;23.310;2022-10-16T03:49:25;14.17;;;10.17;;
5379;SDS011;2713;42.680;23.310;2022-10-16T03:51:52;14.10;;;10.63;;
5379;SDS011;2713;42.680;23.310;2022-10-16T03:54:19;13.30;;;9.97;;
5379;SDS011;2713;42.680;23.310;2022-10-16T03:56:48;13.67;;;11.17;;
5379;SDS011;2713;42.680;23.310;2022-10-16T03:59:15;11.57;;;9.80;;
5379;SDS011;2713;42.680;23.310;2022-10-16T04:01:42;11.50;;;9.77;;
5379;SDS011;2713;42.680;23.310;2022-10-16T04:04:09;12.40;;;9.97;;
5379;SDS011;2713;42.680;23.310;2022-10-16T04:06:36;13.63;;;10.10;;
5379;SDS011;2713;42.680;23.310;2022-10-16T04:09:02;14.57;;;11.13;;
5379;SDS011;2713;42.680;23.310;2022-10-16T04:11:29;11.30;;;10.10;;
5379;SDS011;2713;42.680;23.310;2022-10-16T04:13:57;14.60;;;10.77;;
5379;SDS011;2713;42.680;23.310;2022-10-16T04:16:24;15.33;;;10.57;;
5379;SDS011;2713;42.680;23.310;2022-10-16T04:18:51;13.87;;;10.60;;
5379;SDS011;2713;42.680;23.310;2022-10-16T04:21:18;14.77;;;10.47;;
5379;SDS011;2713;42.680;23.310;2022-10-16T04:23:45;12.60;;;9.60;;
5379;SDS011;2713;42.680;23.310;2022-10-16T04:26:11;15.47;;;11.23;;
5379;SDS011;2713;42.680;23.310;2022-10-16T04:28:38;15.47;;;10.90;;
5379;SDS011;2713;42.680;23.310;2022-10-16T04:31:06;14.37;;;10.90;;
5379;SDS011;2713;42.680;23.310;2022-10-16T04:33:33;15.57;;;11.97;;
5379;SDS011;2713;42.680;23.310;2022-10-16T04:36:00;16.63;;;11.07;;
5379;SDS011;2713;42.680;23.310;2022-10-16T04:38:28;18.80;;;10.63;;
5379;SDS011;2713;42.680;23.310;2022-10-16T04:40:55;16.77;;;11.33;;
5379;SDS011;2713;42.680;23.310;2022-10-16T04:43:22;15.50;;;10.60;;
5379;SDS011;2713;42.680;23.310;2022-10-16T04:45:49;17.37;;;10.97;;
5379;SDS011;2713;42.680;23.310;2022-10-16T04:48:18;12.27;;;9.90;;
5379;SDS011;2713;42.680;23.310;2022-10-16T04:50:45;14.23;;;10.20;;
5379;SDS011;2713;42.680;23.310;2022-10-16T04:53:11;11.87;;;10.27;;
5379;SDS011;2713;42.680;23.310;2022-10-16T04:55:38;11.87;;;9.77;;
5379;SDS011;2713;42.680;23.310;2022-10-16T04:58:05;14.07;;;10.00;;
5379;SDS011;2713;42.680;23.310;2022-10-16T05:00:32;11.77;;;9.70;;
5379;SDS011;2713;42.680;23.310;2022-10-16T05:02:59;13.93;;;10.33;;
5379;SDS011;2713;42.680;23.310;2022-10-16T05:05:28;13.83;;;10.10;;
5379;SDS011;2713;42.680;23.310;2022-10-16T05:07:54;11.07;;;9.93;;
5379;SDS011;2713;42.680;23.310;2022-10-16T05:10:21;16.43;;;10.63;;
5379;SDS011;2713;42.680;23.310;2022-10-16T05:12:48;12.60;;;10.13;;
5379;SDS011;2713;42.680;23.310;2022-10-16T05:15:16;17.70;;;10.83;;
5379;SDS011;2713;42.680;23.310;2022-10-16T05:17:43;13.03;;;10.13;;
5379;SDS011;2713;42.680;23.310;2022-10-16T05:20:10;15.93;;;9.80;;
5379;SDS011;2713;42.680;23.310;2022-10-16T05:22:38;11.90;;;9.80;;
5379;SDS011;2713;42.680;23.310;2022-10-16T05:25:05;14.17;;;10.73;;
5379;SDS011;2713;42.680;23.310;2022-10-16T05:27:32;15.00;;;10.33;;
5379;SDS011;2713;42.680;23.310;2022-10-16T05:29:59;11.83;;;9.63;;
5379;SDS011;2713;42.680;23.310;2022-10-16T05:32:26;14.30;;;9.73;;
5379;SDS011;2713;42.680;23.310;2022-10-16T05:34:53;13.27;;;10.10;;
5379;SDS011;2713;42.680;23.310;2022-10-16T05:37:20;12.97;;;10.90;;
5379;SDS011;2713;42.680;23.310;2022-10-16T05:39:48;14.17;;;10.67;;
5379;SDS011;2713;42.680;23.310;2022-10-16T05:42:15;12.13;;;10.17;;
5379;SDS011;2713;42.680;23.310;2022-10-16T05:44:41;14.03;;;10.30;;
5379;SDS011;2713;42.680;23.310;2022-10-16T05:47:08;13.53;;;10.27;;
5379;SDS011;2713;42.680;23.310;2022-10-16T05:49:36;13.63;;;9.37;;
5379;SDS011;2713;42.680;23.310;2022-10-16T05:52:03;14.37;;;10.50;;
5379;SDS011;2713;42.680;23.310;2022-10-16T05:54:30;13.50;;;10.13;;
5379;SDS011;2713;42.680;23.310;2022-10-16T05:56:58;17.90;;;10.30;;
5379;SDS011;2713;42.680;23.310;2022-10-16T05:59:25;11.83;;;10.57;;
5379;SDS011;2713;42.680;23.310;2022-10-16T06:01:52;13.47;;;10.60;;
5379;SDS011;2713;42.680;23.310;2022-10-16T06:04:18;13.50;;;10.40;;
5379;SDS011;2713;42.680;23.310;2022-10-16T06:06:45;17.43;;;13.03;;
5379;SDS011;2713;42.680;23.310;2022-10-16T06:09:12;12.90;;;10.30;;
5379;SDS011;2713;42.680;23.310;2022-10-16T06:11:39;13.13;;;9.97;;
5379;SDS011;2713;42.680;23.310;2022-10-16T06:14:07;13.37;;;10.90;;
5379;SDS011;2713;42.680;23.310;2022-10-16T06:16:35;11.27;;;9.93;;
5379;SDS011;2713;42.680;23.310;2022-10-16T06:19:03;13.50;;;11.00;;
5379;SDS011;2713;42.680;23.310;2022-10-16T06:21:31;11.73;;;9.93;;
5379;SDS011;2713;42.680;23.310;2022-10-16T06:23:58;13.03;;;10.70;;
5379;SDS011;2713;42.680;23.310;2022-10-16T06:26:26;14.70;;;11.33;;
5379;SDS011;2713;42.680;23.310;2022-10-16T06:28:54;11.93;;;10.70;;
5379;SDS011;2713;42.680;23.310;2022-10-16T06:31:23;13.83;;;10.60;;
5379;SDS011;2713;42.680;23.310;2022-10-16T06:33:53;17.67;;;11.37;;
5379;SDS011;2713;42.680;23.310;2022-10-16T06:36:21;14.23;;;11.27;;
5379;SDS011;2713;42.680;23.310;2022-10-16T06:38:48;12.50;;;11.20;;
5379;SDS011;2713;42.680;23.310;2022-10-16T06:41:16;12.80;;;10.40;;
5379;SDS011;2713;42.680;23.310;2022-10-16T06:43:45;18.13;;;11.80;;
5379;SDS011;2713;42.680;23.310;2022-10-16T06:46:12;15.30;;;13.43;;
5379;SDS011;2713;42.680;23.310;2022-10-16T06:48:42;14.30;;;11.20;;
5379;SDS011;2713;42.680;23.310;2022-10-16T06:51:09;14.40;;;11.90;;
5379;SDS011;2713;42.680;23.310;2022-10-16T06:53:39;15.43;;;12.57;;
5379;SDS011;2713;42.680;23.310;2022-10-16T06:56:07;12.93;;;11.33;;
5379;SDS011;2713;42.680;23.310;2022-10-16T06:58:35;12.60;;;11.30;;
5379;SDS011;2713;42.680;23.310;2022-10-16T07:01:02;16.53;;;12.53;;
5379;SDS011;2713;42.680;23.310;2022-10-16T07:03:29;12.63;;;10.60;;
5379;SDS011;2713;42.680;23.310;2022-10-16T07:06:00;15.37;;;11.47;;
5379;SDS011;2713;42.680;23.310;2022-10-16T07:08:28;14.83;;;11.60;;
5379;SDS011;2713;42.680;23.310;2022-10-16T07:11:00;15.07;;;11.30;;
5379;SDS011;2713;42.680;23.310;2022-10-16T07:13:28;14.27;;;11.70;;
5379;SDS011;2713;42.680;23.310;2022-10-16T07:15:55;14.83;;;11.57;;
5379;SDS011;2713;42.680;23.310;2022-10-16T07:18:22;13.73;;;12.20;;
5379;SDS011;2713;42.680;23.310;2022-10-16T07:20:52;15.57;;;11.93;;
5379;SDS011;2713;42.680;23.310;2022-10-16T07:23:20;16.70;;;14.33;;
5379;SDS011;2713;42.680;23.310;2022-10-16T07:25:53;15.40;;;12.43;;
5379;SDS011;2713;42.680;23.310;2022-10-16T07:28:21;18.40;;;12.83;;
5379;SDS011;2713;42.680;23.310;2022-10-16T07:30:48;17.27;;;13.47;;
5379;SDS011;2713;42.680;23.310;2022-10-16T07:33:15;13.90;;;12.20;;
5379;SDS011;2713;42.680;23.310;2022-10-16T07:35:47;17.90;;;12.93;;
5379;SDS011;2713;42.680;23.310;2022-10-16T07:38:14;16.30;;;14.07;;
5379;SDS011;2713;42.680;23.310;2022-10-16T07:40:43;19.20;;;14.27;;
5379;SDS011;2713;42.680;23.310;2022-10-16T07:43:10;16.83;;;15.03;;
5379;SDS011;2713;42.680;23.310;2022-10-16T07:45:37;15.67;;;13.80;;
5379;SDS011;2713;42.680;23.310;2022-10-16T07:48:12;15.80;;;14.07;;
5379;SDS011;2713;42.680;23.310;2022-10-16T07:50:39;15.70;;;13.97;;
5379;SDS011;2713;42.680;23.310;2022-10-16T07:53:06;14.67;;;12.73;;
5379;SDS011;2713;42.680;23.310;2022-10-16T07:55:33;19.80;;;13.87;;
5379;SDS011;2713;42.680;23.310;2022-10-16T07:58:01;22.23;;;17.37;;
5379;SDS011;2713;42.680;23.310;2022-10-16T08:00:28;15.63;;;12.90;;
5379;SDS011;2713;42.680;23.310;2022-10-16T08:02:56;17.33;;;13.97;;
5379;SDS011;2713;42.680;23.310;2022-10-16T08:05:25;14.23;;;12.37;;
5379;SDS011;2713;42.680;23.310;2022-10-16T08:07:52;14.67;;;11.87;;
5379;SDS011;2713;42.680;23.310;2022-10-16T08:10:20;11.80;;;10.50;;
5379;SDS011;2713;42.680;23.310;2022-10-16T08:12:47;12.20;;;10.90;;
5379;SDS011;2713;42.680;23.310;2022-10-16T08:15:16;11.33;;;10.17;;
5379;SDS011;2713;42.680;23.310;2022-10-16T08:17:43;18.17;;;14.63;;
5379;SDS011;2713;42.680;23.310;2022-10-16T08:20:10;11.87;;;10.67;;
5379;SDS011;2713;42.680;23.310;2022-10-16T08:22:39;12.60;;;9.80;;
5379;SDS011;2713;42.680;23.310;2022-10-16T08:25:06;10.73;;;9.73;;
5379;SDS011;2713;42.680;23.310;2022-10-16T08:27:33;10.33;;;9.33;;
5379;SDS011;2713;42.680;23.310;2022-10-16T08:30:00;9.80;;;8.80;;
5379;SDS011;2713;42.680;23.310;2022-10-16T08:32:28;9.87;;;8.57;;
5379;SDS011;2713;42.680;23.310;2022-10-16T08:34:55;9.60;;;8.37;;
5379;SDS011;2713;42.680;23.310;2022-10-16T08:37:22;10.23;;;8.77;;
5379;SDS011;2713;42.680;23.310;2022-10-16T08:39:49;7.70;;;7.00;;
5379;SDS011;2713;42.680;23.310;2022-10-16T08:42:22;8.87;;;7.20;;
5379;SDS011;2713;42.680;23.310;2022-10-16T08:45:14;9.40;;;7.10;;
5379;SDS011;2713;42.680;23.310;2022-10-16T08:47:54;10.50;;;7.20;;
5379;SDS011;2713;42.680;23.310;2022-10-16T08:50:29;7.60;;;6.73;;
5379;SDS011;2713;42.680;23.310;2022-10-16T08:52:57;7.73;;;6.93;;
5379;SDS011;2713;42.680;23.310;2022-10-16T08:55:30;8.50;;;7.27;;
5379;SDS011;2713;42.680;23.310;2022-10-16T08:58:00;9.10;;;8.20;;
5379;SDS011;2713;42.680;23.310;2022-10-16T09:00:27;9.57;;;7.20;;
5379;SDS011;2713;42.680;23.310;2022-10-16T09:02:59;7.33;;;5.77;;
5379;SDS011;2713;42.680;23.310;2022-10-16T09:05:41;5.80;;;5.30;;
5379;SDS011;2713;42.680;23.310;2022-10-16T09:08:31;6.20;;;5.80;;
5379;SDS011;2713;42.680;23.310;2022-10-16T09:11:10;7.30;;;6.60;;
5379;SDS011;2713;42.680;23.310;2022-10-16T09:13:48;6.20;;;5.50;;
5379;SDS011;2713;42.680;23.310;2022-10-16T09:16:22;5.43;;;4.80;;
5379;SDS011;2713;42.680;23.310;2022-10-16T09:18:56;4.73;;;4.43;;
5379;SDS011;2713;42.680;23.310;2022-10-16T09:21:30;4.93;;;4.53;;
5379;SDS011;2713;42.680;23.310;2022-10-16T09:24:07;5.70;;;5.10;;
5379;SDS011;2713;42.680;23.310;2022-10-16T09:26:38;5.00;;;4.60;;
5379;SDS011;2713;42.680;23.310;2022-10-16T09:29:05;6.60;;;4.77;;
5379;SDS011;2713;42.680;23.310;2022-10-16T09:31:32;5.17;;;4.67;;
5379;SDS011;2713;42.680;23.310;2022-10-16T09:34:04;7.60;;;5.30;;
5379;SDS011;2713;42.680;23.310;2022-10-16T09:36:35;6.10;;;4.87;;
5379;SDS011;2713;42.680;23.310;2022-10-16T09:39:07;5.20;;;4.80;;
5379;SDS011;2713;42.680;23.310;2022-10-16T09:41:37;5.07;;;4.67;;
5379;SDS011;2713;42.680;23.310;2022-10-16T09:44:13;5.10;;;4.70;;
5379;SDS011;2713;42.680;23.310;2022-10-16T09:46:45;4.93;;;4.47;;
5379;SDS011;2713;42.680;23.310;2022-10-16T09:49:21;5.67;;;5.00;;
5379;SDS011;2713;42.680;23.310;2022-10-16T09:51:49;8.30;;;4.67;;
5379;SDS011;2713;42.680;23.310;2022-10-16T09:54:19;6.53;;;5.10;;
5379;SDS011;2713;42.680;23.310;2022-10-16T09:56:47;6.37;;;5.17;;
5379;SDS011;2713;42.680;23.310;2022-10-16T09:59:18;6.40;;;5.57;;
5379;SDS011;2713;42.680;23.310;2022-10-16T10:01:47;6.10;;;5.50;;
5379;SDS011;2713;42.680;23.310;2022-10-16T10:04:16;5.80;;;5.30;;
5379;SDS011;2713;42.680;23.310;2022-10-16T10:06:45;5.60;;;5.10;;
5379;SDS011;2713;42.680;23.310;2022-10-16T10:09:15;6.03;;;5.00;;
5379;SDS011;2713;42.680;23.310;2022-10-16T10:11:49;5.30;;;4.90;;
5379;SDS011;2713;42.680;23.310;2022-10-16T10:14:19;6.23;;;5.20;;
5379;SDS011;2713;42.680;23.310;2022-10-16T10:16:52;5.27;;;4.77;;
5379;SDS011;2713;42.680;23.310;2022-10-16T10:19:27;5.30;;;4.80;;
5379;SDS011;2713;42.680;23.310;2022-10-16T10:21:56;5.17;;;4.33;;
5379;SDS011;2713;42.680;23.310;2022-10-16T10:24:22;6.80;;;4.77;;
5379;SDS011;2713;42.680;23.310;2022-10-16T10:26:52;5.13;;;4.30;;
5379;SDS011;2713;42.680;23.310;2022-10-16T10:29:27;4.73;;;4.37;;
5379;SDS011;2713;42.680;23.310;2022-10-16T10:32:09;4.90;;;4.40;;
5379;SDS011;2713;42.680;23.310;2022-10-16T10:34:47;4.10;;;3.80;;
5379;SDS011;2713;42.680;23.310;2022-10-16T10:37:29;6.27;;;4.50;;
5379;SDS011;2713;42.680;23.310;2022-10-16T10:40:13;6.10;;;4.70;;
5379;SDS011;2713;42.680;23.310;2022-10-16T10:42:49;6.33;;;4.43;;
5379;SDS011;2713;42.680;23.310;2022-10-16T10:45:24;5.10;;;4.70;;
5379;SDS011;2713;42.680;23.310;2022-10-16T10:48:03;7.63;;;5.40;;
5379;SDS011;2713;42.680;23.310;2022-10-16T10:50:43;5.10;;;4.60;;
5379;SDS011;2713;42.680;23.310;2022-10-16T10:53:21;5.80;;;5.30;;
5379;SDS011;2713;42.680;23.310;2022-10-16T10:56:00;6.13;;;5.60;;
5379;SDS011;2713;42.680;23.310;2022-10-16T11:01:58;6.80;;;5.03;;
5379;SDS011;2713;42.680;23.310;2022-10-16T11:04:32;5.00;;;4.50;;
5379;SDS011;2713;42.680;23.310;2022-10-16T11:07:09;6.27;;;5.67;;
5379;SDS011;2713;42.680;23.310;2022-10-16T11:09:43;5.40;;;4.30;;
5379;SDS011;2713;42.680;23.310;2022-10-16T11:12:14;4.57;;;4.00;;
5379;SDS011;2713;42.680;23.310;2022-10-16T11:14:46;4.30;;;4.00;;
5379;SDS011;2713;42.680;23.310;2022-10-16T11:17:19;4.67;;;4.27;;
5379;SDS011;2713;42.680;23.310;2022-10-16T11:19:51;5.00;;;4.57;;
5379;SDS011;2713;42.680;23.310;2022-10-16T11:22:22;4.43;;;4.00;;
5379;SDS011;2713;42.680;23.310;2022-10-16T11:24:59;5.17;;;4.67;;
5379;SDS011;2713;42.680;23.310;2022-10-16T11:27:34;5.60;;;5.10;;
5379;SDS011;2713;42.680;23.310;2022-10-16T11:30:05;4.93;;;4.53;;
5379;SDS011;2713;42.680;23.310;2022-10-16T11:32:42;4.50;;;4.10;;
5379;SDS011;2713;42.680;23.310;2022-10-16T11:35:19;4.33;;;4.03;;
5379;SDS011;2713;42.680;23.310;2022-10-16T11:37:49;4.70;;;4.30;;
5379;SDS011;2713;42.680;23.310;2022-10-16T11:40:22;6.67;;;5.30;;
5379;SDS011;2713;42.680;23.310;2022-10-16T11:42:52;5.00;;;4.60;;
5379;SDS011;2713;42.680;23.310;2022-10-16T11:45:26;6.67;;;4.23;;
5379;SDS011;2713;42.680;23.310;2022-10-16T11:48:00;8.77;;;6.20;;
5379;SDS011;2713;42.680;23.310;2022-10-16T11:50:31;7.27;;;4.63;;
5379;SDS011;2713;42.680;23.310;2022-10-16T11:53:03;6.47;;;4.70;;
5379;SDS011;2713;42.680;23.310;2022-10-16T11:55:41;5.80;;;4.70;;
5379;SDS011;2713;42.680;23.310;2022-10-16T11:58:09;4.40;;;4.00;;
5379;SDS011;2713;42.680;23.310;2022-10-16T12:00:46;5.30;;;4.07;;
5379;SDS011;2713;42.680;23.310;2022-10-16T12:03:22;5.83;;;4.23;;
5379;SDS011;2713;42.680;23.310;2022-10-16T12:05:58;5.10;;;4.30;;
5379;SDS011;2713;42.680;23.310;2022-10-16T12:08:36;5.20;;;4.13;;
5379;SDS011;2713;42.680;23.310;2022-10-16T12:11:08;4.83;;;4.33;;
5379;SDS011;2713;42.680;23.310;2022-10-16T12:13:46;5.00;;;4.60;;
5379;SDS011;2713;42.680;23.310;2022-10-16T12:16:19;5.30;;;4.50;;
5379;SDS011;2713;42.680;23.310;2022-10-16T12:18:50;7.40;;;4.93;;
5379;SDS011;2713;42.680;23.310;2022-10-16T12:21:35;5.43;;;4.50;;
5379;SDS011;2713;42.680;23.310;2022-10-16T12:24:02;5.27;;;4.87;;
5379;SDS011;2713;42.680;23.310;2022-10-16T12:26:32;6.07;;;5.20;;
5379;SDS011;2713;42.680;23.310;2022-10-16T12:29:13;4.90;;;4.40;;
5379;SDS011;2713;42.680;23.310;2022-10-16T12:31:48;8.73;;;6.93;;
5379;SDS011;2713;42.680;23.310;2022-10-16T12:34:20;5.10;;;4.17;;
5379;SDS011;2713;42.680;23.310;2022-10-16T12:36:53;4.50;;;4.20;;
5379;SDS011;2713;42.680;23.310;2022-10-16T12:39:21;6.83;;;4.90;;
5379;SDS011;2713;42.680;23.310;2022-10-16T12:42:01;6.83;;;4.87;;
5379;SDS011;2713;42.680;23.310;2022-10-16T12:44:31;5.07;;;4.63;;
5379;SDS011;2713;42.680;23.310;2022-10-16T12:47:00;6.20;;;4.80;;
5379;SDS011;2713;42.680;23.310;2022-10-16T12:49:31;5.77;;;5.03;;
5379;SDS011;2713;42.680;23.310;2022-10-16T12:52:03;5.20;;;4.70;;
5379;SDS011;2713;42.680;23.310;2022-10-16T12:54:30;4.60;;;4.20;;
5379;SDS011;2713;42.680;23.310;2022-10-16T12:57:09;5.97;;;4.53;;
5379;SDS011;2713;42.680;23.310;2022-10-16T12:59:53;5.30;;;4.60;;
5379;SDS011;2713;42.680;23.310;2022-10-16T13:05:40;6.07;;;5.00;;
5379;SDS011;2713;42.680;23.310;2022-10-16T13:08:23;6.80;;;4.60;;
5379;SDS011;2713;42.680;23.310;2022-10-16T13:11:14;4.60;;;4.20;;
5379;SDS011;2713;42.680;23.310;2022-10-16T13:16:49;4.80;;;4.30;;
5379;SDS011;2713;42.680;23.310;2022-10-16T13:19:26;6.40;;;4.63;;
5379;SDS011;2713;42.680;23.310;2022-10-16T13:22:01;4.30;;;3.50;;
5379;SDS011;2713;42.680;23.310;2022-10-16T13:24:40;4.03;;;3.63;;
5379;SDS011;2713;42.680;23.310;2022-10-16T13:27:18;4.57;;;4.00;;
5379;SDS011;2713;42.680;23.310;2022-10-16T13:30:00;4.90;;;4.10;;
5379;SDS011;2713;42.680;23.310;2022-10-16T13:32:28;4.63;;;4.23;;
5379;SDS011;2713;42.680;23.310;2022-10-16T13:34:55;4.00;;;3.70;;
5379;SDS011;2713;42.680;23.310;2022-10-16T13:37:23;5.97;;;4.13;;
5379;SDS011;2713;42.680;23.310;2022-10-16T13:39:50;4.57;;;3.97;;
5379;SDS011;2713;42.680;23.310;2022-10-16T13:42:20;5.27;;;4.77;;
5379;SDS011;2713;42.680;23.310;2022-10-16T13:44:51;5.20;;;4.70;;
5379;SDS011;2713;42.680;23.310;2022-10-16T13:47:21;11.00;;;7.23;;
5379;SDS011;2713;42.680;23.310;2022-10-16T13:49:58;6.60;;;5.60;;
5379;SDS011;2713;42.680;23.310;2022-10-16T13:52:27;4.57;;;4.17;;
5379;SDS011;2713;42.680;23.310;2022-10-16T13:54:53;4.50;;;4.10;;
5379;SDS011;2713;42.680;23.310;2022-10-16T13:57:21;4.53;;;4.13;;
5379;SDS011;2713;42.680;23.310;2022-10-16T13:59:49;4.73;;;4.33;;
5379;SDS011;2713;42.680;23.310;2022-10-16T14:02:18;6.00;;;4.50;;
5379;SDS011;2713;42.680;23.310;2022-10-16T14:04:51;4.60;;;4.20;;
5379;SDS011;2713;42.680;23.310;2022-10-16T14:07:23;5.30;;;3.90;;
5379;SDS011;2713;42.680;23.310;2022-10-16T14:09:52;3.80;;;3.60;;
5379;SDS011;2713;42.680;23.310;2022-10-16T14:12:20;4.33;;;3.57;;
5379;SDS011;2713;42.680;23.310;2022-10-16T14:14:50;3.83;;;3.60;;
5379;SDS011;2713;42.680;23.310;2022-10-16T14:17:19;6.10;;;3.87;;
5379;SDS011;2713;42.680;23.310;2022-10-16T14:19:50;3.60;;;3.30;;
5379;SDS011;2713;42.680;23.310;2022-10-16T14:22:30;4.47;;;3.37;;
5379;SDS011;2713;42.680;23.310;2022-10-16T14:24:59;3.83;;;3.53;;
5379;SDS011;2713;42.680;23.310;2022-10-16T14:27:28;3.90;;;3.60;;
5379;SDS011;2713;42.680;23.310;2022-10-16T14:30:12;5.73;;;3.40;;
5379;SDS011;2713;42.680;23.310;2022-10-16T14:32:52;3.43;;;3.23;;
5379;SDS011;2713;42.680;23.310;2022-10-16T14:35:27;4.70;;;3.60;;
5379;SDS011;2713;42.680;23.310;2022-10-16T14:37:56;8.30;;;3.50;;
5379;SDS011;2713;42.680;23.310;2022-10-16T14:40:27;3.93;;;3.50;;
5379;SDS011;2713;42.680;23.310;2022-10-16T14:42:55;6.57;;;3.70;;
5379;SDS011;2713;42.680;23.310;2022-10-16T14:45:23;3.97;;;3.60;;
5379;SDS011;2713;42.680;23.310;2022-10-16T14:47:54;4.87;;;3.67;;
5379;SDS011;2713;42.680;23.310;2022-10-16T14:50:22;5.70;;;3.80;;
5379;SDS011;2713;42.680;23.310;2022-10-16T14:52:50;3.70;;;3.33;;
5379;SDS011;2713;42.680;23.310;2022-10-16T14:55:16;8.00;;;3.57;;
5379;SDS011;2713;42.680;23.310;2022-10-16T14:57:45;4.00;;;3.60;;
5379;SDS011;2713;42.680;23.310;2022-10-16T15:00:14;3.73;;;3.43;;
5379;SDS011;2713;42.680;23.310;2022-10-16T15:02:44;13.63;;;3.60;;
5379;SDS011;2713;42.680;23.310;2022-10-16T15:05:14;4.70;;;3.97;;
5379;SDS011;2713;42.680;23.310;2022-10-16T15:07:43;4.63;;;3.70;;
5379;SDS011;2713;42.680;23.310;2022-10-16T15:10:10;3.73;;;3.43;;
5379;SDS011;2713;42.680;23.310;2022-10-16T15:12:37;4.60;;;4.20;;
5379;SDS011;2713;42.680;23.310;2022-10-16T15:18:00;4.53;;;3.87;;